createdAt,value
2022-11-10T00:03:13.767Z,23.52
2022-11-10T00:06:36.834Z,8.52
2022-11-10T00:09:59.412Z,10.93
2022-11-10T00:13:22.283Z,3.72
2022-11-10T00:17:04.832Z,15.38
2022-11-10T00:20:29.943Z,8.35
2022-11-10T00:23:55.552Z,12.90
2022-11-10T00:27:21.343Z,4.10
2022-11-10T00:30:46.771Z,6.97
2022-11-10T00:34:13.487Z,29.47
2022-11-10T00:37:39.022Z,5.75
2022-11-10T00:41:02.312Z,2.55
2022-11-10T00:44:24.880Z,3.45
2022-11-10T00:47:50.250Z,5.28
2022-11-10T00:51:28.089Z,3.63
2022-11-10T00:54:51.340Z,11.23
2022-11-10T00:58:14.469Z,41.70
2022-11-10T01:01:45.663Z,7.28
2022-11-10T01:05:08.643Z,8.63
2022-11-10T01:08:31.335Z,7.88
2022-11-10T01:11:55.194Z,33.88
2022-11-10T01:15:19.896Z,4.30
2022-11-10T01:18:51.593Z,5.32
2022-11-10T01:22:14.493Z,2.67
2022-11-10T01:25:37.808Z,6.13
2022-11-10T01:29:01.697Z,6.18
2022-11-10T01:32:24.597Z,7.18
2022-11-10T01:35:47.989Z,2.33
2022-11-10T01:39:11.108Z,1.55
2022-11-10T01:43:01.501Z,17.60
2022-11-10T01:46:24.595Z,16.42
2022-11-10T01:49:47.368Z,3.90
2022-11-10T01:53:15.777Z,13.82
2022-11-10T01:56:43.695Z,12.77
2022-11-10T02:00:07.046Z,4.00
2022-11-10T02:03:36.825Z,11.15
2022-11-10T02:07:00.777Z,5.18
2022-11-10T02:10:23.732Z,15.45
2022-11-10T02:13:46.771Z,6.47
2022-11-10T02:17:09.893Z,9.57
2022-11-10T02:20:33.095Z,5.93
2022-11-10T02:23:56.200Z,7.63
2022-11-10T02:27:18.986Z,11.70
2022-11-10T02:30:41.549Z,7.07
2022-11-10T02:34:05.024Z,5.97
2022-11-10T02:37:27.950Z,5.60
2022-11-10T02:40:51.632Z,6.47
2022-11-10T02:44:14.554Z,4.05
2022-11-10T02:47:37.807Z,5.20
2022-11-10T02:51:00.566Z,10.20
2022-11-10T02:54:23.155Z,3.20
2022-11-10T02:57:46.141Z,7.30
2022-11-10T03:01:09.251Z,18.10
2022-11-10T03:04:32.139Z,10.52
2022-11-10T03:07:56.500Z,23.42
2022-11-10T03:11:19.502Z,20.98
2022-11-10T03:14:42.002Z,6.47
2022-11-10T03:18:06.703Z,6.20
2022-11-10T03:21:29.424Z,13.65
2022-11-10T03:24:52.721Z,23.92
2022-11-10T03:28:16.440Z,15.65
2022-11-10T03:31:39.855Z,54.88
2022-11-10T03:35:03.211Z,15.30
2022-11-10T03:38:25.811Z,18.17
2022-11-10T03:41:48.995Z,9.43
2022-11-10T03:45:13.857Z,32.70
2022-11-10T03:48:37.458Z,5.05
2022-11-10T03:52:00.491Z,9.27
2022-11-10T03:55:23.643Z,7.10
2022-11-10T03:58:46.415Z,4.72
2022-11-10T04:02:09.269Z,7.13
2022-11-10T04:05:50.586Z,4.13
2022-11-10T04:09:15.552Z,8.70
2022-11-10T04:12:57.307Z,3.65
2022-11-10T04:16:20.365Z,5.07
2022-11-10T04:19:43.354Z,4.05
2022-11-10T04:23:26.206Z,3.25
2022-11-10T04:26:49.865Z,5.30
2022-11-10T04:30:13.159Z,2.22
2022-11-10T04:33:37.207Z,10.98
2022-11-10T04:37:00.349Z,9.90
2022-11-10T04:40:22.542Z,5.15
2022-11-10T04:43:45.937Z,15.18
2022-11-10T04:47:11.871Z,8.02
2022-11-10T04:50:35.934Z,8.25
2022-11-10T04:53:58.688Z,5.53
2022-11-10T04:57:21.669Z,8.73
2022-11-10T05:00:44.881Z,4.00
2022-11-10T05:04:07.497Z,6.70
2022-11-10T05:07:30.531Z,6.80
2022-11-10T05:10:53.410Z,9.80
2022-11-10T05:14:15.981Z,5.80
2022-11-10T05:17:39.210Z,3.88
2022-11-10T05:21:02.525Z,7.85
2022-11-10T05:24:25.728Z,8.02
2022-11-10T05:27:48.792Z,3.95
2022-11-10T05:31:12.395Z,4.32
2022-11-10T05:34:35.393Z,4.80
2022-11-10T05:37:58.594Z,11.02
2022-11-10T05:41:21.385Z,8.13
2022-11-10T05:44:44.042Z,6.97
2022-11-10T05:48:08.232Z,5.43
2022-11-10T05:51:30.957Z,16.20
2022-11-10T05:54:56.369Z,60.90
2022-11-10T05:58:19.665Z,54.33
2022-11-10T06:01:42.657Z,5.60
2022-11-10T06:05:05.711Z,32.05
2022-11-10T06:08:28.659Z,37.03
2022-11-10T06:11:52.133Z,5.95
2022-11-10T06:15:16.616Z,4.68
2022-11-10T06:18:39.790Z,11.25
2022-11-10T06:22:07.354Z,11.48
2022-11-10T06:25:32.220Z,5.20
2022-11-10T06:28:55.370Z,33.97
2022-11-10T06:32:18.344Z,10.10
2022-11-10T06:35:41.085Z,7.10
2022-11-10T06:39:04.741Z,14.20
2022-11-10T06:42:27.601Z,19.73
2022-11-10T06:45:50.407Z,32.03
2022-11-10T06:49:13.152Z,5.78
2022-11-10T06:52:35.661Z,13.27
2022-11-10T06:55:58.402Z,21.42
2022-11-10T06:59:21.256Z,44.35
2022-11-10T07:02:44.524Z,7.57
2022-11-10T07:06:07.904Z,11.93
2022-11-10T07:09:31.298Z,3.95
2022-11-10T07:13:01.344Z,8.82
2022-11-10T07:16:24.663Z,5.03
2022-11-10T07:19:47.450Z,4.78
2022-11-10T07:23:10.831Z,6.30
2022-11-10T07:26:33.228Z,5.50
2022-11-10T07:29:56.044Z,15.18
2022-11-10T07:33:19.089Z,19.00
2022-11-10T07:36:41.814Z,29.40
2022-11-10T07:40:05.388Z,25.73
2022-11-10T07:43:28.162Z,29.45
2022-11-10T07:46:51.531Z,21.85
2022-11-10T07:50:14.415Z,19.92
2022-11-10T07:53:37.689Z,31.67
2022-11-10T07:57:00.493Z,31.50
2022-11-10T08:00:23.654Z,29.17
2022-11-10T08:03:46.622Z,41.35
2022-11-10T08:07:09.455Z,42.17
2022-11-10T08:10:34.932Z,42.35
2022-11-10T08:13:57.565Z,34.97
2022-11-10T08:17:20.421Z,29.83
2022-11-10T08:20:43.376Z,33.15
2022-11-10T08:24:07.687Z,49.47
2022-11-10T08:27:31.091Z,40.55
2022-11-10T08:30:54.188Z,49.30
2022-11-10T08:34:17.325Z,64.70
2022-11-10T08:37:39.812Z,113.00
2022-11-10T08:41:02.630Z,87.45
2022-11-10T08:44:25.395Z,139.70
2022-11-10T08:47:48.187Z,111.95
2022-11-10T08:51:10.758Z,113.60
2022-11-10T08:54:34.394Z,72.70
2022-11-10T08:58:01.605Z,81.28
2022-11-10T09:01:24.339Z,40.55
2022-11-10T09:04:47.412Z,50.28
2022-11-10T09:08:10.639Z,61.17
2022-11-10T09:11:33.364Z,57.15
2022-11-10T09:14:56.212Z,63.03
2022-11-10T09:18:19.135Z,86.55
2022-11-10T09:21:42.075Z,103.07
2022-11-10T09:25:05.889Z,72.10
2022-11-10T09:28:28.474Z,200.60
2022-11-10T09:31:51.585Z,123.53
2022-11-10T09:35:14.641Z,134.07
2022-11-10T09:38:37.650Z,93.05
2022-11-10T09:42:01.747Z,134.32
2022-11-10T09:45:48.413Z,61.13
2022-11-10T09:49:40.058Z,97.88
2022-11-10T09:53:04.337Z,187.57
2022-11-10T09:56:39.155Z,233.07
2022-11-10T10:00:02.026Z,209.27
2022-11-10T10:03:32.424Z,295.85
2022-11-10T10:07:24.008Z,306.35
2022-11-10T10:10:51.419Z,297.17
2022-11-10T10:14:40.408Z,299.05
2022-11-10T10:18:12.071Z,324.48
2022-11-10T10:21:47.723Z,320.23
2022-11-10T10:25:30.591Z,285.35
2022-11-10T10:28:54.014Z,288.13
2022-11-10T10:32:18.549Z,343.65
2022-11-10T10:35:43.258Z,235.32
2022-11-10T10:39:32.595Z,195.05
2022-11-10T10:42:55.396Z,222.20
2022-11-10T10:46:20.281Z,199.48
2022-11-10T10:50:26.434Z,166.55
2022-11-10T10:53:51.245Z,187.35
2022-11-10T10:57:31.538Z,211.52
2022-11-10T11:01:06.576Z,176.13
2022-11-10T11:04:39.187Z,237.75
2022-11-10T11:08:03.764Z,196.20
2022-11-10T11:11:36.846Z,117.32
2022-11-10T11:15:23.157Z,134.82
2022-11-10T11:18:47.046Z,137.60
2022-11-10T11:22:52.095Z,223.18
2022-11-10T11:26:48.145Z,114.00
2022-11-10T11:30:20.481Z,107.75
2022-11-10T11:33:51.034Z,89.55
2022-11-10T11:37:49.274Z,126.28
2022-11-10T11:41:21.197Z,110.10
2022-11-10T11:45:17.007Z,117.70
2022-11-10T11:49:20.444Z,104.00
2022-11-10T11:53:01.666Z,65.72
2022-11-10T11:56:39.126Z,130.60
2022-11-10T12:00:15.303Z,75.45
2022-11-10T12:03:42.661Z,82.80
2022-11-10T12:07:20.534Z,70.60
2022-11-10T12:11:02.646Z,67.05
2022-11-10T12:15:00.617Z,51.38
2022-11-10T12:18:29.323Z,65.43
2022-11-10T12:22:10.672Z,69.45
2022-11-10T12:25:44.669Z,48.72
2022-11-10T12:29:27.510Z,55.30
2022-11-10T12:32:53.969Z,57.30
2022-11-10T12:39:47.715Z,50.22
2022-11-10T12:43:18.074Z,51.60
2022-11-10T12:46:49.477Z,74.78
2022-11-10T12:50:17.502Z,65.78
2022-11-10T12:53:43.378Z,123.73
2022-11-10T12:57:20.833Z,46.28
2022-11-10T13:01:11.753Z,53.30
2022-11-10T13:04:35.990Z,104.70
2022-11-10T13:08:15.637Z,56.85
2022-11-10T13:11:41.282Z,64.78
2022-11-10T13:15:36.947Z,48.40
2022-11-10T13:19:00.313Z,60.65
2022-11-10T13:22:31.110Z,65.18
2022-11-10T13:26:02.735Z,92.43
2022-11-10T13:29:35.871Z,223.07
2022-11-10T13:33:36.331Z,390.60
2022-11-10T13:37:00.138Z,237.27
2022-11-10T13:40:26.265Z,108.78
2022-11-10T13:47:54.011Z,216.23
2022-11-10T13:51:32.224Z,226.18
2022-11-10T13:55:16.825Z,50.67
2022-11-10T13:58:45.344Z,52.33
2022-11-10T14:02:37.208Z,42.95
2022-11-10T14:06:11.130Z,34.67
2022-11-10T14:09:40.782Z,21.88
2022-11-10T14:13:19.306Z,26.90
2022-11-10T14:16:44.798Z,60.03
2022-11-10T14:20:42.518Z,261.85
2022-11-10T14:24:16.697Z,179.93
2022-11-10T14:27:40.293Z,399.25
2022-11-10T14:31:03.307Z,86.53
2022-11-10T14:34:26.967Z,50.08
2022-11-10T14:37:50.676Z,57.10
2022-11-10T14:41:21.042Z,63.05
2022-11-10T14:44:44.322Z,285.98
2022-11-10T14:48:20.185Z,255.85
2022-11-10T14:51:43.650Z,358.85
2022-11-10T14:55:21.111Z,316.98
2022-11-10T14:58:47.433Z,255.82
2022-11-10T15:02:16.001Z,80.20
2022-11-10T15:05:38.530Z,51.38
2022-11-10T15:09:12.644Z,212.95
2022-11-10T15:12:40.898Z,107.03
2022-11-10T15:16:26.324Z,155.65
2022-11-10T15:19:49.859Z,118.88
2022-11-10T15:23:33.064Z,66.32
2022-11-10T15:26:56.740Z,64.18
2022-11-10T15:30:27.008Z,75.57
2022-11-10T15:33:53.867Z,52.75
2022-11-10T15:37:30.595Z,64.47
2022-11-10T15:41:05.169Z,63.88
2022-11-10T15:44:32.104Z,59.85
2022-11-10T15:47:55.857Z,54.17
2022-11-10T15:51:25.898Z,45.17
2022-11-10T15:54:51.447Z,45.92
2022-11-10T15:58:25.401Z,65.55
2022-11-10T16:01:48.898Z,58.08
2022-11-10T16:05:13.549Z,55.10
2022-11-10T16:08:37.415Z,48.22
2022-11-10T16:12:00.477Z,48.22
2022-11-10T16:15:23.571Z,43.33
2022-11-10T16:18:47.139Z,159.65
2022-11-10T16:22:14.208Z,87.72
2022-11-10T16:25:37.627Z,92.00
2022-11-10T16:29:00.641Z,78.30
2022-11-10T16:32:23.592Z,82.88
2022-11-10T16:35:46.974Z,93.65
2022-11-10T16:39:14.907Z,62.97
2022-11-10T16:42:38.154Z,36.88
2022-11-10T16:46:05.297Z,45.95
2022-11-10T16:49:36.332Z,50.65
2022-11-10T16:52:59.467Z,59.58
2022-11-10T16:56:23.960Z,55.20
2022-11-10T16:59:46.655Z,56.33
2022-11-10T17:03:17.530Z,52.30
2022-11-10T17:06:40.754Z,45.22
2022-11-10T17:10:03.777Z,33.50
2022-11-10T17:13:28.598Z,55.65
2022-11-10T17:16:51.305Z,38.33
2022-11-10T17:20:33.145Z,44.63
2022-11-10T17:23:56.286Z,49.22
2022-11-10T17:27:20.963Z,50.30
2022-11-10T17:30:44.347Z,173.15
2022-11-10T17:34:07.267Z,82.30
2022-11-10T17:37:29.842Z,103.60
2022-11-10T17:40:53.314Z,66.57
2022-11-10T17:44:20.441Z,73.80
2022-11-10T17:47:43.484Z,68.40
2022-11-10T17:51:07.121Z,84.82
2022-11-10T17:54:30.038Z,82.25
2022-11-10T17:57:54.144Z,57.78
2022-11-10T18:01:22.601Z,67.10
2022-11-10T18:04:45.142Z,49.47
2022-11-10T18:08:08.457Z,68.82
2022-11-10T18:11:31.910Z,76.80
2022-11-10T18:14:54.532Z,67.70
2022-11-10T18:18:19.143Z,77.95
2022-11-10T18:21:42.130Z,76.95
2022-11-10T18:25:05.257Z,76.85
2022-11-10T18:28:28.126Z,52.42
2022-11-10T18:31:50.797Z,62.15
2022-11-10T18:35:13.681Z,75.90
2022-11-10T18:38:36.833Z,72.95
2022-11-10T18:41:59.868Z,68.80
2022-11-10T18:45:22.654Z,65.55
2022-11-10T18:48:49.313Z,67.93
2022-11-10T18:52:12.156Z,82.28
2022-11-10T18:55:34.952Z,78.47
2022-11-10T18:58:58.294Z,66.00
2022-11-10T19:02:21.303Z,66.45
2022-11-10T19:05:44.203Z,58.03
2022-11-10T19:09:07.544Z,54.63
2022-11-10T19:12:30.470Z,40.67
2022-11-10T19:15:53.521Z,43.83
2022-11-10T19:19:16.476Z,49.63
2022-11-10T19:22:39.533Z,44.88
2022-11-10T19:26:07.658Z,47.60
2022-11-10T19:29:29.931Z,45.55
2022-11-10T19:32:53.252Z,37.22
2022-11-10T19:36:19.433Z,36.58
2022-11-10T19:43:04.987Z,28.58
2022-11-10T19:46:29.712Z,24.90
2022-11-10T19:49:52.379Z,35.47
2022-11-10T19:53:17.290Z,34.40
2022-11-10T19:56:40.570Z,30.55
2022-11-10T20:00:03.166Z,36.58
2022-11-10T20:03:26.075Z,56.28
2022-11-10T20:06:49.051Z,57.50
2022-11-10T20:10:12.137Z,62.30
2022-11-10T20:13:35.393Z,65.70
2022-11-10T20:16:58.343Z,50.65
2022-11-10T20:20:21.759Z,54.17
2022-11-10T20:23:45.614Z,58.42
2022-11-10T20:27:08.179Z,55.25
2022-11-10T20:30:31.690Z,45.30
2022-11-10T20:33:56.951Z,51.40
2022-11-10T20:37:19.962Z,55.28
2022-11-10T20:40:44.790Z,51.67
2022-11-10T20:44:08.135Z,33.55
2022-11-10T20:47:31.050Z,49.08
2022-11-10T20:50:53.606Z,43.28
2022-11-10T20:54:18.225Z,48.90
2022-11-10T20:57:41.231Z,56.20
2022-11-10T21:01:15.015Z,48.85
2022-11-10T21:04:42.824Z,54.67
2022-11-10T21:08:07.184Z,56.58
2022-11-10T21:11:48.345Z,52.92
2022-11-10T21:15:11.387Z,73.78
2022-11-10T21:18:38.213Z,91.78
2022-11-10T21:22:01.510Z,97.95
2022-11-10T21:25:24.415Z,171.68
2022-11-10T21:28:46.941Z,165.13
2022-11-10T21:32:09.638Z,157.55
2022-11-10T21:35:37.746Z,120.68
2022-11-10T21:39:00.929Z,61.17
2022-11-10T21:42:24.194Z,83.65
2022-11-10T21:45:46.934Z,119.78
2022-11-10T21:49:09.372Z,116.95
2022-11-10T21:52:36.102Z,109.75
2022-11-10T21:56:03.975Z,100.90
2022-11-10T21:59:26.542Z,275.23
2022-11-10T22:02:49.238Z,108.88
2022-11-10T22:06:17.485Z,112.35
2022-11-10T22:09:58.805Z,110.63
2022-11-10T22:13:40.934Z,86.63
2022-11-10T22:17:22.479Z,95.30
2022-11-10T22:20:46.011Z,75.95
2022-11-10T22:24:29.569Z,134.15
2022-11-10T22:27:52.454Z,102.93
2022-11-10T22:31:15.345Z,89.82
2022-11-10T22:34:38.121Z,98.32
2022-11-10T22:38:07.934Z,107.80
2022-11-10T22:41:49.341Z,102.90
2022-11-10T22:45:12.277Z,55.95
2022-11-10T22:48:35.308Z,60.22
2022-11-10T22:51:58.283Z,77.68
2022-11-10T22:55:21.328Z,56.15
2022-11-10T22:58:44.405Z,69.05
2022-11-10T23:02:07.190Z,68.50
2022-11-10T23:05:29.791Z,65.85
2022-11-10T23:08:52.710Z,83.07
2022-11-10T23:12:15.100Z,76.40
2022-11-10T23:15:39.183Z,91.35
2022-11-10T23:19:02.818Z,93.43
2022-11-10T23:22:25.569Z,89.95
2022-11-10T23:25:59.221Z,63.80
2022-11-10T23:29:22.077Z,13.35
2022-11-10T23:32:45.058Z,10.55
2022-11-10T23:36:09.272Z,12.93
2022-11-10T23:39:32.212Z,21.98
2022-11-10T23:42:55.372Z,12.00
2022-11-10T23:46:18.556Z,12.27
2022-11-10T23:49:41.214Z,14.15
2022-11-10T23:53:03.989Z,14.98
2022-11-10T23:56:27.187Z,14.27
2022-11-10T23:59:50.304Z,25.50
